createdAt,value
2022-12-25T00:02:18.852Z,13.50
2022-12-25T00:05:22.714Z,13.65
2022-12-25T00:08:29.164Z,14.07
2022-12-25T00:11:34.975Z,14.40
2022-12-25T00:14:38.425Z,16.30
2022-12-25T00:17:43.063Z,15.07
2022-12-25T00:20:46.388Z,14.95
2022-12-25T00:23:55.923Z,13.13
2022-12-25T00:27:01.565Z,13.18
2022-12-25T00:30:08.003Z,11.75
2022-12-25T00:33:11.360Z,13.02
2022-12-25T00:36:20.325Z,13.70
2022-12-25T00:39:23.712Z,13.23
2022-12-25T00:42:28.690Z,13.65
2022-12-25T00:45:32.269Z,13.13
2022-12-25T00:48:38.515Z,15.07
2022-12-25T00:51:43.164Z,14.10
2022-12-25T00:54:46.792Z,14.80
2022-12-25T00:57:51.351Z,13.00
2022-12-25T01:01:00.077Z,13.07
2022-12-25T01:04:03.864Z,12.73
2022-12-25T01:07:08.402Z,13.23
2022-12-25T01:10:23.931Z,13.60
2022-12-25T01:13:29.056Z,14.45
2022-12-25T01:16:33.064Z,14.20
2022-12-25T01:19:37.104Z,13.40
2022-12-25T01:22:40.323Z,14.05
2022-12-25T01:25:44.263Z,12.45
2022-12-25T01:28:51.869Z,12.80
2022-12-25T01:31:55.641Z,12.45
2022-12-25T01:35:00.502Z,12.73
2022-12-25T01:38:05.301Z,11.15
2022-12-25T01:41:08.728Z,11.37
2022-12-25T01:44:15.923Z,15.75
2022-12-25T01:47:19.219Z,16.25
2022-12-25T01:50:24.054Z,16.90
2022-12-25T01:53:27.724Z,16.60
2022-12-25T01:56:32.449Z,16.67
2022-12-25T01:59:36.037Z,16.10
2022-12-25T02:02:41.301Z,17.45
2022-12-25T02:05:46.524Z,18.40
2022-12-25T02:08:49.895Z,16.08
2022-12-25T02:12:00.118Z,15.17
2022-12-25T02:15:12.425Z,18.50
2022-12-25T02:18:26.825Z,17.30
2022-12-25T02:21:42.290Z,17.57
2022-12-25T02:25:09.338Z,16.95
2022-12-25T02:28:23.321Z,15.50
2022-12-25T02:31:49.091Z,15.95
2022-12-25T02:35:02.340Z,16.10
2022-12-25T02:38:16.303Z,15.30
2022-12-25T02:41:19.501Z,14.87
2022-12-25T02:44:44.581Z,15.07
2022-12-25T02:48:20.095Z,13.93
2022-12-25T02:51:46.652Z,13.65
2022-12-25T02:55:19.007Z,14.70
2022-12-25T02:58:43.459Z,13.38
2022-12-25T03:02:05.342Z,15.10
2022-12-25T03:05:32.188Z,13.82
2022-12-25T03:08:40.543Z,13.88
2022-12-25T03:11:47.712Z,13.95
2022-12-25T03:15:09.738Z,12.60
2022-12-25T03:18:18.405Z,14.70
2022-12-25T03:21:40.454Z,14.02
2022-12-25T03:25:03.863Z,13.15
2022-12-25T03:28:07.275Z,12.87
2022-12-25T03:31:19.230Z,14.10
2022-12-25T03:35:13.139Z,13.32
2022-12-25T03:39:03.370Z,13.35
2022-12-25T03:42:26.337Z,10.93
2022-12-25T03:46:13.059Z,13.10
2022-12-25T03:49:56.506Z,12.23
2022-12-25T03:53:22.288Z,11.05
2022-12-25T03:56:46.863Z,13.27
2022-12-25T04:00:09.293Z,13.10
2022-12-25T04:03:31.099Z,12.27
2022-12-25T04:06:55.164Z,12.05
2022-12-25T04:10:17.459Z,12.20
2022-12-25T04:13:39.773Z,11.80
2022-12-25T04:17:01.941Z,12.32
2022-12-25T04:20:27.267Z,13.45
2022-12-25T04:23:50.123Z,11.73
2022-12-25T04:27:12.502Z,11.43
2022-12-25T04:30:39.134Z,9.77
2022-12-25T04:34:01.338Z,12.32
2022-12-25T04:37:04.773Z,8.80
2022-12-25T04:40:09.068Z,10.25
2022-12-25T04:43:12.413Z,8.05
2022-12-25T04:46:17.138Z,8.73
2022-12-25T04:49:21.233Z,7.95
2022-12-25T04:52:24.822Z,7.87
2022-12-25T04:55:27.930Z,8.25
2022-12-25T04:58:32.558Z,8.38
2022-12-25T05:01:37.654Z,9.07
2022-12-25T05:04:43.642Z,9.07
2022-12-25T05:07:46.964Z,7.80
2022-12-25T05:10:51.767Z,7.55
2022-12-25T05:13:55.005Z,8.43
2022-12-25T05:16:59.226Z,9.63
2022-12-25T05:20:02.365Z,12.52
2022-12-25T05:23:05.880Z,12.20
2022-12-25T05:26:09.090Z,12.05
2022-12-25T05:29:14.348Z,10.60
2022-12-25T05:32:17.467Z,9.70
2022-12-25T05:35:21.064Z,8.98
2022-12-25T05:38:24.302Z,9.93
2022-12-25T05:41:33.767Z,10.57
2022-12-25T05:44:37.657Z,9.85
2022-12-25T05:47:43.431Z,9.30
2022-12-25T05:50:51.298Z,8.25
2022-12-25T05:53:54.827Z,9.52
2022-12-25T05:56:58.032Z,8.40
2022-12-25T06:00:01.925Z,9.82
2022-12-25T06:03:15.422Z,9.05
2022-12-25T06:06:19.721Z,8.10
2022-12-25T06:09:23.405Z,8.30
2022-12-25T06:12:26.826Z,8.55
2022-12-25T06:15:30.297Z,9.88
2022-12-25T06:18:42.565Z,10.03
2022-12-25T06:21:47.501Z,9.40
2022-12-25T06:24:53.452Z,9.95
2022-12-25T06:28:00.876Z,10.02
2022-12-25T06:31:14.214Z,9.73
2022-12-25T06:34:20.021Z,10.85
2022-12-25T06:37:23.743Z,11.82
2022-12-25T06:40:27.039Z,11.17
2022-12-25T06:43:30.473Z,11.73
2022-12-25T06:46:33.736Z,12.15
2022-12-25T06:49:37.333Z,12.20
2022-12-25T06:52:40.526Z,12.13
2022-12-25T06:55:43.990Z,12.57
2022-12-25T06:58:49.585Z,13.65
2022-12-25T07:01:57.515Z,14.02
2022-12-25T07:05:02.033Z,14.65
2022-12-25T07:08:05.692Z,13.57
2022-12-25T07:11:09.277Z,12.57
2022-12-25T07:14:24.508Z,13.80
2022-12-25T07:17:28.002Z,13.62
2022-12-25T07:20:31.719Z,15.37
2022-12-25T07:23:35.065Z,15.57
2022-12-25T07:26:39.296Z,17.98
2022-12-25T07:29:44.313Z,18.12
2022-12-25T07:32:52.198Z,19.65
2022-12-25T07:35:58.489Z,22.13
2022-12-25T07:39:02.041Z,19.75
2022-12-25T07:42:05.427Z,22.60
2022-12-25T07:45:09.397Z,22.00
2022-12-25T07:48:16.651Z,23.83
2022-12-25T07:51:21.844Z,26.47
2022-12-25T07:54:32.335Z,27.25
2022-12-25T07:57:36.583Z,31.27
2022-12-25T08:00:40.890Z,36.55
2022-12-25T08:03:44.921Z,35.28
2022-12-25T08:06:53.440Z,38.13
2022-12-25T08:10:00.675Z,36.10
2022-12-25T08:13:09.047Z,42.23
2022-12-25T08:16:16.176Z,51.37
2022-12-25T08:19:19.459Z,45.70
2022-12-25T08:22:22.854Z,59.27
2022-12-25T08:25:26.230Z,54.95
2022-12-25T08:28:31.555Z,49.45
2022-12-25T08:31:36.426Z,49.00
2022-12-25T08:34:43.220Z,35.75
2022-12-25T08:37:46.383Z,29.48
2022-12-25T08:40:50.550Z,25.20
2022-12-25T08:43:54.189Z,25.70
2022-12-25T08:47:19.748Z,26.00
2022-12-25T08:50:25.310Z,20.88
2022-12-25T08:53:30.400Z,19.50
2022-12-25T08:56:39.491Z,19.02
2022-12-25T08:59:43.129Z,23.87
2022-12-25T09:02:46.671Z,24.98
2022-12-25T09:05:50.764Z,20.23
2022-12-25T09:08:54.136Z,9.27
2022-12-25T09:11:57.693Z,10.38
2022-12-25T09:15:00.866Z,7.93
2022-12-25T09:18:04.414Z,9.20
2022-12-25T09:21:12.500Z,7.65
2022-12-25T09:24:18.349Z,6.85
2022-12-25T09:27:24.574Z,5.78
2022-12-25T09:30:30.588Z,5.62
2022-12-25T09:33:34.226Z,5.70
2022-12-25T09:36:42.474Z,6.10
2022-12-25T09:39:49.162Z,5.13
2022-12-25T09:42:55.138Z,5.97
2022-12-25T09:46:01.243Z,6.10
2022-12-25T09:49:23.183Z,5.75
2022-12-25T09:52:36.888Z,6.03
2022-12-25T09:55:49.119Z,5.77
2022-12-25T09:58:53.021Z,5.70
2022-12-25T10:02:18.584Z,5.35
2022-12-25T10:05:28.286Z,5.40
2022-12-25T10:09:22.070Z,6.15
2022-12-25T10:12:39.287Z,5.50
2022-12-25T10:16:04.061Z,6.35
2022-12-25T10:19:37.933Z,6.75
2022-12-25T10:22:53.367Z,7.00
2022-12-25T10:25:57.037Z,6.68
2022-12-25T10:29:16.271Z,7.80
2022-12-25T10:32:22.657Z,7.57
2022-12-25T10:35:28.707Z,8.07
2022-12-25T10:38:32.412Z,8.38
2022-12-25T10:41:53.681Z,9.50
2022-12-25T10:45:05.573Z,10.65
2022-12-25T10:48:14.002Z,12.30
2022-12-25T10:51:32.433Z,12.02
2022-12-25T10:54:38.322Z,10.93
2022-12-25T10:57:46.409Z,10.43
2022-12-25T11:00:59.362Z,11.27
2022-12-25T11:04:03.184Z,9.27
2022-12-25T11:07:22.068Z,8.48
2022-12-25T11:10:36.962Z,8.00
2022-12-25T11:13:48.951Z,6.30
2022-12-25T11:16:52.719Z,7.57
2022-12-25T11:20:00.668Z,7.43
2022-12-25T11:23:10.852Z,8.10
2022-12-25T11:26:14.966Z,5.57
2022-12-25T11:29:26.697Z,7.40
2022-12-25T11:32:41.589Z,7.35
2022-12-25T11:35:53.138Z,6.68
2022-12-25T11:38:59.504Z,6.87
2022-12-25T11:42:32.422Z,10.45
2022-12-25T11:45:49.157Z,9.70
2022-12-25T11:49:00.880Z,7.55
2022-12-25T11:52:06.779Z,8.65
2022-12-25T11:55:31.407Z,6.95
2022-12-25T11:58:52.426Z,7.12
2022-12-25T12:02:11.779Z,17.47
2022-12-25T12:05:23.669Z,8.80
2022-12-25T12:08:27.156Z,8.38
2022-12-25T12:11:42.944Z,7.70
2022-12-25T12:14:54.120Z,7.47
2022-12-25T12:18:20.154Z,7.00
2022-12-25T12:21:26.363Z,5.87
2022-12-25T12:24:35.941Z,5.07
2022-12-25T12:27:44.155Z,5.07
2022-12-25T12:31:02.354Z,5.15
2022-12-25T12:34:29.223Z,4.93
2022-12-25T12:37:38.620Z,7.85
2022-12-25T12:41:03.690Z,5.32
2022-12-25T12:44:07.932Z,4.78
2022-12-25T12:47:34.268Z,3.85
2022-12-25T12:50:41.082Z,3.70
2022-12-25T12:53:44.423Z,3.97
2022-12-25T12:57:03.887Z,24.40
2022-12-25T13:00:10.764Z,5.93
2022-12-25T13:03:29.121Z,3.80
2022-12-25T13:06:55.071Z,15.37
2022-12-25T13:09:59.618Z,6.03
2022-12-25T13:13:26.788Z,3.87
2022-12-25T13:16:42.755Z,3.90
2022-12-25T13:19:57.740Z,9.07
2022-12-25T13:23:01.355Z,5.50
2022-12-25T13:26:17.670Z,5.32
2022-12-25T13:29:29.121Z,5.30
2022-12-25T13:32:35.372Z,6.43
2022-12-25T13:35:43.793Z,5.87
2022-12-25T13:38:50.825Z,5.40
2022-12-25T13:42:10.101Z,5.53
2022-12-25T13:45:14.290Z,6.03
2022-12-25T13:48:18.008Z,5.80
2022-12-25T13:51:21.131Z,7.55
2022-12-25T13:54:27.544Z,7.17
2022-12-25T13:57:34.845Z,6.60
2022-12-25T14:00:47.713Z,7.22
2022-12-25T14:03:51.526Z,7.55
2022-12-25T14:07:10.989Z,7.90
2022-12-25T14:10:17.729Z,7.97
2022-12-25T14:13:23.740Z,8.88
2022-12-25T14:16:29.180Z,9.68
2022-12-25T14:19:34.661Z,10.65
2022-12-25T14:22:53.532Z,9.82
2022-12-25T14:25:59.235Z,16.73
2022-12-25T14:29:05.760Z,13.52
2022-12-25T14:32:17.035Z,14.05
2022-12-25T14:35:23.848Z,15.50
2022-12-25T14:38:32.587Z,17.17
2022-12-25T14:41:38.682Z,16.93
2022-12-25T14:44:42.020Z,16.73
2022-12-25T14:47:54.574Z,15.70
2022-12-25T14:51:09.199Z,14.50
2022-12-25T14:54:23.554Z,13.77
2022-12-25T14:57:30.117Z,12.73
2022-12-25T15:00:40.893Z,13.68
2022-12-25T15:03:49.270Z,15.88
2022-12-25T15:06:55.208Z,15.45
2022-12-25T15:10:27.125Z,17.35
2022-12-25T15:13:23.045Z,14.57
2022-12-25T15:16:49.582Z,14.80
2022-12-25T15:19:57.956Z,17.87
2022-12-25T15:23:19.039Z,15.57
2022-12-25T15:26:28.184Z,24.25
2022-12-25T15:30:08.009Z,24.60
2022-12-25T15:32:55.613Z,25.35
2022-12-25T15:36:02.085Z,23.87
2022-12-25T15:39:05.760Z,21.65
2022-12-25T15:42:14.652Z,20.00
2022-12-25T15:45:24.559Z,20.50
2022-12-25T15:48:27.791Z,18.70
2022-12-25T15:51:31.833Z,18.00
2022-12-25T15:54:35.299Z,18.90
2022-12-25T15:57:42.622Z,17.20
2022-12-25T16:00:45.885Z,16.12
2022-12-25T16:03:52.863Z,16.30
2022-12-25T16:06:56.625Z,14.50
2022-12-25T16:10:07.085Z,13.85
2022-12-25T16:13:10.250Z,14.73
2022-12-25T16:16:14.128Z,12.63
2022-12-25T16:19:20.712Z,12.23
2022-12-25T16:22:27.079Z,12.32
2022-12-25T16:25:30.316Z,11.38
2022-12-25T16:28:37.727Z,10.93
2022-12-25T16:31:41.542Z,11.70
2022-12-25T16:34:46.324Z,12.05
2022-12-25T16:37:52.568Z,11.77
2022-12-25T16:40:58.485Z,12.23
2022-12-25T16:44:10.314Z,13.18
2022-12-25T16:47:13.846Z,13.38
2022-12-25T16:50:17.312Z,14.25
2022-12-25T16:53:24.042Z,14.60
2022-12-25T16:56:28.651Z,14.90
2022-12-25T16:59:33.115Z,16.37
2022-12-25T17:02:45.433Z,15.77
2022-12-25T17:05:49.148Z,16.48
2022-12-25T17:08:57.453Z,16.25
2022-12-25T17:12:01.427Z,18.57
2022-12-25T17:15:07.996Z,19.60
2022-12-25T17:18:14.230Z,20.92
2022-12-25T17:21:17.406Z,22.25
2022-12-25T17:24:21.988Z,25.00
2022-12-25T17:27:25.163Z,25.83
2022-12-25T17:30:32.099Z,29.65
2022-12-25T17:33:36.679Z,27.42
2022-12-25T17:36:40.402Z,25.27
2022-12-25T17:39:49.106Z,23.52
2022-12-25T17:42:53.030Z,22.10
2022-12-25T17:45:56.297Z,23.33
2022-12-25T17:49:01.444Z,45.40
2022-12-25T17:52:04.905Z,35.63
2022-12-25T17:55:09.235Z,29.55
2022-12-25T17:58:12.482Z,26.45
2022-12-25T18:01:17.021Z,23.97
2022-12-25T18:04:26.223Z,24.73
2022-12-25T18:07:29.485Z,25.62
2022-12-25T18:10:37.746Z,26.37
2022-12-25T18:13:48.468Z,25.67
2022-12-25T18:16:52.540Z,26.02
2022-12-25T18:19:58.062Z,24.12
2022-12-25T18:23:04.068Z,23.23
2022-12-25T18:26:11.959Z,22.30
2022-12-25T18:29:15.910Z,21.62
2022-12-25T18:32:23.395Z,22.00
2022-12-25T18:35:32.132Z,22.55
2022-12-25T18:38:35.764Z,21.10
2022-12-25T18:41:59.460Z,22.00
2022-12-25T18:45:08.513Z,24.10
2022-12-25T18:48:12.433Z,23.77
2022-12-25T18:51:16.067Z,21.83
2022-12-25T18:54:20.148Z,22.83
2022-12-25T18:57:23.571Z,20.05
2022-12-25T19:00:28.217Z,20.85
2022-12-25T19:03:31.837Z,18.85
2022-12-25T19:06:35.424Z,19.33
2022-12-25T19:09:38.924Z,18.30
2022-12-25T19:12:43.118Z,19.67
2022-12-25T19:15:46.444Z,20.08
2022-12-25T19:18:50.169Z,21.62
2022-12-25T19:21:55.798Z,20.60
2022-12-25T19:24:59.608Z,18.77
2022-12-25T19:28:03.330Z,19.55
2022-12-25T19:31:09.014Z,20.20
2022-12-25T19:34:14.761Z,19.33
2022-12-25T19:37:20.395Z,19.35
2022-12-25T19:40:29.956Z,17.50
2022-12-25T19:43:39.085Z,18.92
2022-12-25T19:46:42.920Z,18.27
2022-12-25T19:49:52.576Z,20.92
2022-12-25T19:52:56.865Z,17.30
2022-12-25T19:56:03.298Z,33.95
2022-12-25T19:59:10.889Z,17.23
2022-12-25T20:02:14.807Z,17.08
2022-12-25T20:05:21.063Z,15.40
2022-12-25T20:08:24.975Z,14.50
2022-12-25T20:11:32.261Z,14.70
2022-12-25T20:14:36.750Z,13.52
2022-12-25T20:17:51.235Z,13.23
2022-12-25T20:21:15.571Z,13.85
2022-12-25T20:24:19.168Z,14.63
2022-12-25T20:27:26.278Z,13.25
2022-12-25T20:30:30.592Z,13.80
2022-12-25T20:33:36.349Z,13.88
2022-12-25T20:36:42.096Z,12.90
2022-12-25T20:39:45.534Z,14.52
2022-12-25T20:42:49.450Z,14.90
2022-12-25T20:45:53.586Z,15.15
2022-12-25T20:48:58.433Z,14.87
2022-12-25T20:52:05.438Z,14.85
2022-12-25T20:55:10.733Z,14.13
2022-12-25T20:58:15.568Z,13.62
2022-12-25T21:01:19.351Z,14.57
2022-12-25T21:04:22.968Z,13.48
2022-12-25T21:07:26.570Z,13.40
2022-12-25T21:10:29.873Z,14.52
2022-12-25T21:13:35.612Z,12.97
2022-12-25T21:16:40.219Z,14.45
2022-12-25T21:19:43.893Z,13.82
2022-12-25T21:22:49.168Z,14.43
2022-12-25T21:25:53.746Z,14.57
2022-12-25T21:29:00.499Z,13.60
2022-12-25T21:32:22.758Z,14.45
2022-12-25T21:35:25.960Z,14.15
2022-12-25T21:38:29.677Z,13.40
2022-12-25T21:41:36.849Z,14.52
2022-12-25T21:44:40.329Z,14.82
2022-12-25T21:47:59.940Z,16.52
2022-12-25T21:51:26.724Z,17.40
2022-12-25T21:54:29.916Z,15.93
2022-12-25T21:57:33.876Z,16.80
2022-12-25T22:00:39.924Z,15.90
2022-12-25T22:03:44.731Z,15.93
2022-12-25T22:07:07.106Z,16.35
2022-12-25T22:10:13.747Z,16.33
2022-12-25T22:13:35.794Z,15.85
2022-12-25T22:16:57.814Z,16.35
2022-12-25T22:20:01.087Z,17.45
2022-12-25T22:23:09.193Z,17.27
2022-12-25T22:26:20.430Z,16.40
2022-12-25T22:29:24.480Z,16.67
2022-12-25T22:32:28.557Z,17.17
2022-12-25T22:35:34.266Z,17.30
2022-12-25T22:38:37.603Z,17.50
2022-12-25T22:41:41.460Z,18.70
2022-12-25T22:44:45.715Z,19.17
2022-12-25T22:47:49.607Z,17.13
2022-12-25T22:50:54.767Z,17.30
2022-12-25T22:54:03.543Z,16.87
2022-12-25T22:57:07.314Z,17.33
2022-12-25T23:00:13.818Z,16.87
2022-12-25T23:03:17.169Z,17.60
2022-12-25T23:06:21.500Z,18.20
2022-12-25T23:09:28.018Z,18.53
2022-12-25T23:12:53.579Z,17.02
2022-12-25T23:15:57.180Z,18.27
2022-12-25T23:19:20.980Z,17.85
2022-12-25T23:22:43.080Z,17.52
2022-12-25T23:26:07.265Z,17.95
2022-12-25T23:29:29.250Z,18.73
2022-12-25T23:32:33.420Z,19.13
2022-12-25T23:35:44.157Z,18.48
2022-12-25T23:38:47.737Z,17.50
2022-12-25T23:41:50.961Z,18.75
2022-12-25T23:44:57.872Z,18.73
2022-12-25T23:48:01.282Z,18.48
2022-12-25T23:51:08.212Z,19.52
2022-12-25T23:54:17.208Z,18.07
2022-12-25T23:57:23.090Z,18.50
